Time;durP1;ratioP1;P1;durP2;ratioP2;P2;SDS_P1;SDS_P2;PMS_P1;PMS_P2;Temp;Humidity;BMP_temperature;BMP_pressure;BME280_temperature;BME280_humidity;BME280_pressure;Samples;Min_cycle;Max_cycle;Signal;HPM_P1;HPM_P2
2023/05/31 00:00:26;;;;;;;;;;;;;;;;;;5023218;28;19964;-57
2023/05/31 00:02:52;;;;;;;;;;;;;;;;;;5029735;28;19956;-57
2023/05/31 00:05:18;;;;;;;;;;;;;;;;;;5027755;28;19941;-56
2023/05/31 00:07:44;;;;;;;;;;;;;;;;;;5030900;28;19990;-57
2023/05/31 00:10:10;;;;;;;;;;;;;;;;;;5026948;28;19975;-57
2023/05/31 00:12:36;;;;;;;;;;;;;;;;;;5027945;28;19957;-57
2023/05/31 00:15:02;;;;;;;;;;;;;;;;;;5025884;28;19988;-57
2023/05/31 00:17:28;;;;;;;;;;;;;;;;;;5029424;28;19969;-57
2023/05/31 00:19:54;;;;;;;;;;;;;;;;;;5027193;28;19921;-57
2023/05/31 00:22:20;;;;;;;;;;;;;;;;;;5028900;28;19913;-57
2023/05/31 00:24:46;;;;;;;;;;;;;;;;;;5025355;28;19987;-57
2023/05/31 00:27:12;;;;;;;;;;;;;;;;;;5028033;28;19960;-57
2023/05/31 00:29:38;;;;;;;;;;;;;;;;;;5025374;28;20420;-57
2023/05/31 00:32:04;;;;;;;;;;;;;;;;;;5026193;28;19964;-57
2023/05/31 00:34:30;;;;;;;;;;;;;;;;;;5026173;28;19928;-57
2023/05/31 00:36:56;;;;;;;;;;;;;;;;;;5026830;28;19918;-57
2023/05/31 00:39:22;;;;;;;;;;;;;;;;;;5027391;28;19972;-57
2023/05/31 00:41:48;;;;;;;;;;;;;;;;;;5028996;28;20399;-57
2023/05/31 00:44:14;;;;;;;;;;;;;;;;;;5025020;28;19960;-57
2023/05/31 00:46:40;;;;;;;;;;;;;;;;;;5027381;28;19913;-57
2023/05/31 00:49:06;;;;;;;;;;;;;;;;;;5026188;28;19939;-57
2023/05/31 00:51:32;;;;;;;;;;;;;;;;;;5026116;28;20355;-57
2023/05/31 00:53:58;;;;;;;;;;;;;;;;;;5026425;28;20025;-57
2023/05/31 00:56:24;;;;;;;;;;;;;;;;;;5026970;28;20395;-57
2023/05/31 00:58:52;;;;;;;;;;;;;;;;;;5024097;28;20388;-57
2023/05/31 01:01:18;;;;;;;;;;;;;;;;;;5024548;28;20317;-57
2023/05/31 01:03:44;;;;;;;;;;;;;;;;;;5025921;28;19982;-57
2023/05/31 01:06:10;;;;;;;;;;;;;;;;;;5028004;28;19921;-57
2023/05/31 01:08:36;;;;;;;;;;;;;;;;;;5026960;28;19917;-57
2023/05/31 01:11:03;;;;;;;;;;;;;;;;;;5025717;28;19913;-57
2023/05/31 01:13:29;;;;;;;;;;;;;;;;;;5024664;28;20337;-57
2023/05/31 01:15:55;;;;;;;;;;;;;;;;;;5026304;28;19917;-57
2023/05/31 01:18:24;;;;;;;;;;;;;;;;;;5025993;28;19963;-57
2023/05/31 01:20:50;;;;;;;;;;;;;;;;;;5023949;28;19959;-57
2023/05/31 01:23:16;;;;;;;;;;;;;;;;;;5028744;28;19960;-57
2023/05/31 01:25:42;;;;;;;;;;;;;;;;;;5024928;28;19913;-57
2023/05/31 01:28:08;;;;;;;;;;;;;;;;;;5024332;28;19925;-57
2023/05/31 01:30:34;;;;;;;;;;;;;;;;;;5025677;28;19913;-57
2023/05/31 01:33:00;;;;;;;;;;;;;;;;;;5024968;28;19970;-58
2023/05/31 01:35:27;;;;;;;;;;;;;;;;;;5027231;28;20054;-58
2023/05/31 01:37:53;;;;;;;;;;;;;;;;;;5027213;28;19924;-57
2023/05/31 01:40:19;;;;;;;;;;;;;;;;;;5023511;28;19924;-57
2023/05/31 01:42:45;;;;;;;;;;;;;;;;;;5023394;28;19917;-57
2023/05/31 01:45:11;;;;;;;;;;;;;;;;;;5025651;28;19952;-57
2023/05/31 01:47:37;;;;;;;;;;;;;;;;;;5026200;28;19964;-58
2023/05/31 01:50:03;;;;;;;;;;;;;;;;;;5024939;28;20339;-58
2023/05/31 01:52:29;;;;;;;;;;;;;;;;;;5027032;28;19956;-58
2023/05/31 01:54:55;;;;;;;;;;;;;;;;;;5026449;28;19956;-58
2023/05/31 01:57:21;;;;;;;;;;;;;;;;;;5028724;28;19968;-58
2023/05/31 01:59:47;;;;;;;;;;;;;;;;;;5024482;28;20016;-58
2023/05/31 02:02:13;;;;;;;;;;;;;;;;;;5025420;28;19971;-58
2023/05/31 02:04:39;;;;;;;;;;;;;;;;;;5026993;28;19963;-58
2023/05/31 02:07:05;;;;;;;;;;;;;;;;;;5027372;28;19920;-58
2023/05/31 02:09:31;;;;;;;;;;;;;;;;;;5024906;28;20350;-58
2023/05/31 02:11:57;;;;;;;;;;;;;;;;;;5028517;28;20074;-57
2023/05/31 02:14:23;;;;;;;;;;;;;;;;;;5026367;28;20000;-57
2023/05/31 02:16:49;;;;;;;;;;;;;;;;;;5024838;28;20249;-57
2023/05/31 02:19:15;;;;;;;;;;;;;;;;;;5028061;28;20406;-57
2023/05/31 02:21:41;;;;;;;;;;;;;;;;;;5026100;28;19921;-57
2023/05/31 02:24:07;;;;;;;;;;;;;;;;;;5026241;28;20070;-58
2023/05/31 02:26:33;;;;;;;;;;;;;;;;;;5026708;28;20369;-58
2023/05/31 02:28:59;;;;;;;;;;;;;;;;;;5026363;28;19951;-58
2023/05/31 02:31:25;;;;;;;;;;;;;;;;;;5026723;28;20292;-58
2023/05/31 02:33:51;;;;;;;;;;;;;;;;;;5026566;28;20402;-57
2023/05/31 02:36:18;;;;;;;;;;;;;;;;;;5026383;28;19948;-57
2023/05/31 02:38:43;;;;;;;;;;;;;;;;;;5028107;28;20269;-57
2023/05/31 02:41:09;;;;;;;;;;;;;;;;;;5025028;28;19921;-58
2023/05/31 02:43:35;;;;;;;;;;;;;;;;;;5025553;28;19960;-58
2023/05/31 02:46:02;;;;;;;;;;;;;;;;;;5027239;28;19956;-58
2023/05/31 02:48:28;;;;;;;;;;;;;;;;;;5025269;28;19928;-58
2023/05/31 02:50:54;;;;;;;;;;;;;;;;;;5023494;28;19924;-58
2023/05/31 02:53:20;;;;;;;;;;;;;;;;;;5024246;28;19957;-57
2023/05/31 02:55:46;;;;;;;;;;;;;;;;;;5023370;28;19917;-57
2023/05/31 02:58:14;;;;;;;;;;;;;;;;;;5025401;28;20426;-57
2023/05/31 03:00:40;;;;;;;;;;;;;;;;;;5025607;28;20031;-58
2023/05/31 03:03:06;;;;;;;;;;;;;;;;;;5024450;28;20028;-57
2023/05/31 03:05:33;;;;;;;;;;;;;;;;;;5023595;28;20318;-58
2023/05/31 03:07:59;;;;;;;;;;;;;;;;;;5023749;28;20016;-57
2023/05/31 03:10:25;;;;;;;;;;;;;;;;;;5024594;28;20353;-57
2023/05/31 03:12:51;;;;;;;;;;;;;;;;;;5023726;28;19949;-57
2023/05/31 03:15:17;;;;;;;;;;;;;;;;;;5024842;28;19996;-57
2023/05/31 03:17:44;;;;;;;;;;;;;;;;;;5026068;28;20264;-57
2023/05/31 03:20:10;;;;;;;;;;;;;;;;;;5022639;28;20342;-57
2023/05/31 03:22:36;;;;;;;;;;;;;;;;;;5025752;28;20308;-57
2023/05/31 03:25:03;;;;;;;;;;;;;;;;;;5022972;28;19952;-57
2023/05/31 03:27:29;;;;;;;;;;;;;;;;;;5023691;28;19996;-57
2023/05/31 03:29:55;;;;;;;;;;;;;;;;;;5025077;28;20536;-58
2023/05/31 03:32:21;;;;;;;;;;;;;;;;;;5023613;28;19967;-57
2023/05/31 03:34:47;;;;;;;;;;;;;;;;;;5024690;28;19920;-57
2023/05/31 03:37:13;;;;;;;;;;;;;;;;;;5026391;28;19961;-57
2023/05/31 03:39:39;;;;;;;;;;;;;;;;;;5024085;28;19975;-57
2023/05/31 03:42:05;;;;;;;;;;;;;;;;;;5024493;28;19917;-57
2023/05/31 03:44:31;;;;;;;;;;;;;;;;;;5024889;28;20447;-57
2023/05/31 03:46:58;;;;;;;;;;;;;;;;;;5023117;28;20027;-57
2023/05/31 03:49:24;;;;;;;;;;;;;;;;;;5024133;28;19921;-57
2023/05/31 03:51:50;;;;;;;;;;;;;;;;;;5024694;28;19913;-57
2023/05/31 03:54:16;;;;;;;;;;;;;;;;;;5024635;28;19955;-57
2023/05/31 03:56:42;;;;;;;;;;;;;;;;;;5019287;28;19921;-56
2023/05/31 03:59:08;;;;;;;;;;;;;;;;;;5025702;28;20467;-57
2023/05/31 04:01:34;;;;;;;;;;;;;;;;;;5025701;28;19924;-57
2023/05/31 04:04:00;;;;;;;;;;;;;;;;;;5025227;28;19948;-57
2023/05/31 04:06:27;;;;;;;;;;;;;;;;;;5025624;28;20010;-58
2023/05/31 04:08:53;;;;;;;;;;;;;;;;;;5026034;28;19917;-58
2023/05/31 04:11:20;;;;;;;;;;;;;;;;;;5024478;28;20896;-58
2023/05/31 04:13:46;;;;;;;;;;;;;;;;;;5020281;28;20314;-58
2023/05/31 04:16:12;;;;;;;;;;;;;;;;;;5026370;28;19919;-58
2023/05/31 04:18:38;;;;;;;;;;;;;;;;;;5021950;28;19917;-58
2023/05/31 04:21:04;;;;;;;;;;;;;;;;;;5025919;28;19928;-58
2023/05/31 04:23:30;;;;;;;;;;;;;;;;;;5024974;28;19971;-58
2023/05/31 04:25:57;;;;;;;;;;;;;;;;;;5019782;28;19964;-58
2023/05/31 04:28:23;;;;;;;;;;;;;;;;;;5025654;28;20339;-58
2023/05/31 04:30:51;;;;;;;;;;;;;;;;;;5025419;28;19956;-58
2023/05/31 04:33:18;;;;;;;;;;;;;;;;;;5024340;28;20357;-58
2023/05/31 04:35:44;;;;;;;;;;;;;;;;;;5025061;28;19920;-58
2023/05/31 04:38:11;;;;;;;;;;;;;;;;;;5023858;28;20007;-58
2023/05/31 04:40:38;;;;;;;;;;;;;;;;;;5021870;28;19925;-59
2023/05/31 04:43:05;;;;;;;;;;;;;;;;;;5022226;28;19917;-59
2023/05/31 04:45:32;;;;;;;;;;;;;;;;;;5021888;28;19917;-58
2023/05/31 04:48:01;;;;;;;;;;;;;;;;;;5028032;28;19917;-58
2023/05/31 04:50:28;;;;;;;;;;;;;;;;;;5025412;28;19917;-58
2023/05/31 04:52:54;;;;;;;;;;;;;;;;;;5025449;28;20400;-58
2023/05/31 04:55:20;;;;;;;;;;;;;;;;;;5023496;28;19922;-59
2023/05/31 04:57:46;;;;;;;;;;;;;;;;;;5027164;28;20486;-60
2023/05/31 05:00:15;;;;;;;;;;;;;;;;;;5022938;28;19952;-60
2023/05/31 05:02:41;;;;;;;;;;;;;;;;;;5025945;28;19935;-60
2023/05/31 05:05:07;;;;;;;;;;;;;;;;;;5028338;28;19925;-60
2023/05/31 05:07:33;;;;;;;;;;;;;;;;;;5029092;28;20429;-61
2023/05/31 05:10:02;;;;;;;;;;;;;;;;;;5025843;28;19959;-61
2023/05/31 05:12:29;;;;;;;;;;;;;;;;;;5024865;28;20008;-61
2023/05/31 05:14:55;;;;;;;;;;;;;;;;;;5028952;28;19924;-61
2023/05/31 05:17:21;;;;;;;;;;;;;;;;;;5026440;28;20373;-60
2023/05/31 05:19:47;;;;;;;;;;;;;;;;;;5029739;28;19917;-61
2023/05/31 05:22:13;;;;;;;;;;;;;;;;;;5029618;28;19913;-61
2023/05/31 05:24:39;;;;;;;;;;;;;;;;;;5021389;28;19928;-61
2023/05/31 05:27:06;;;;;;;;;;;;;;;;;;5019590;28;20329;-61
2023/05/31 05:29:32;;;;;;;;;;;;;;;;;;5019426;28;19921;-61
2023/05/31 05:31:58;;;;;;;;;;;;;;;;;;5020744;28;19928;-61
2023/05/31 05:34:24;;;;;;;;;;;;;;;;;;5024462;28;20272;-61
2023/05/31 05:36:52;;;;;;;;;;;;;;;;;;5026792;28;19972;-61
2023/05/31 05:39:18;;;;;;;;;;;;;;;;;;5025080;28;20274;-61
2023/05/31 05:41:44;;;;;;;;;;;;;;;;;;5023302;28;19967;-61
2023/05/31 05:44:10;;;;;;;;;;;;;;;;;;5021911;28;19944;-61
2023/05/31 05:46:36;;;;;;;;;;;;;;;;;;5026178;28;20016;-61
2023/05/31 05:49:02;;;;;;;;;;;;;;;;;;5026804;28;20020;-62
2023/05/31 05:51:28;;;;;;;;;;;;;;;;;;5024789;28;19917;-61
2023/05/31 05:53:54;;;;;;;;;;;;;;;;;;5023815;28;20553;-61
2023/05/31 05:56:20;;;;;;;;;;;;;;;;;;5024140;28;20057;-61
2023/05/31 05:58:46;;;;;;;;;;;;;;;;;;5027826;28;20337;-61
2023/05/31 06:01:12;;;;;;;;;;;;;;;;;;5022386;28;19921;-61
2023/05/31 06:03:38;;;;;;;;;;;;;;;;;;5023854;28;20319;-61
2023/05/31 06:06:05;;;;;;;;;;;;;;;;;;5027046;28;20464;-59
2023/05/31 06:08:31;;;;;;;;;;;;;;;;;;5024865;28;19921;-59
2023/05/31 06:10:57;;;;;;;;;;;;;;;;;;5024100;28;19968;-60
2023/05/31 06:13:23;;;;;;;;;;;;;;;;;;5021198;28;19967;-61
2023/05/31 06:15:48;;;;;;;;;;;;;;;;;;5018563;28;19971;-60
2023/05/31 06:18:15;;;;;;;;;;;;;;;;;;5022451;28;20050;-60
2023/05/31 06:20:41;;;;;;;;;;;;;;;;;;5023758;28;19921;-60
2023/05/31 06:23:07;;;;;;;;;;;;;;;;;;5023302;28;19924;-60
2023/05/31 06:25:35;;;;;;;;;;;;;;;;;;5019811;28;19948;-61
2023/05/31 06:28:01;;;;;;;;;;;;;;;;;;5023563;28;20402;-60
2023/05/31 06:30:27;;;;;;;;;;;;;;;;;;5026183;28;19946;-60
2023/05/31 06:32:53;;;;;;;;;;;;;;;;;;5021476;28;19959;-60
2023/05/31 06:35:19;;;;;;;;;;;;;;;;;;5023763;28;20024;-60
2023/05/31 06:37:46;;;;;;;;;;;;;;;;;;5026160;28;19937;-61
2023/05/31 06:40:12;;;;;;;;;;;;;;;;;;5024444;28;19971;-60
2023/05/31 06:42:38;;;;;;;;;;;;;;;;;;5024514;28;19924;-60
2023/05/31 06:45:04;;;;;;;;;;;;;;;;;;5019818;28;19960;-61
2023/05/31 06:47:30;;;;;;;;;;;;;;;;;;5024202;28;20311;-61
2023/05/31 06:49:56;;;;;;;;;;;;;;;;;;5024089;28;20036;-61
2023/05/31 06:52:22;;;;;;;;;;;;;;;;;;5020396;28;19917;-61
2023/05/31 06:54:48;;;;;;;;;;;;;;;;;;5025490;28;19947;-61
2023/05/31 06:57:14;;;;;;;;;;;;;;;;;;5025947;28;20020;-62
2023/05/31 06:59:40;;;;;;;;;;;;;;;;;;5018614;28;19928;-61
2023/05/31 07:02:07;;;;;;;;;;;;;;;;;;5021788;28;20689;-62
2023/05/31 07:04:33;;;;;;;;;;;;;;;;;;5023394;28;19960;-61
2023/05/31 07:06:59;;;;;;;;;;;;;;;;;;5025890;28;20340;-61
2023/05/31 07:09:25;;;;;;;;;;;;;;;;;;5024910;28;20436;-62
2023/05/31 07:11:51;;;;;;;;;;;;;;;;;;5026749;28;20628;-61
2023/05/31 07:14:17;;;;;;;;;;;;;;;;;;5022610;28;20302;-62
2023/05/31 07:16:43;;;;;;;;;;;;;;;;;;5024260;28;19948;-61
2023/05/31 07:19:09;;;;;;;;;;;;;;;;;;5024879;28;19921;-61
2023/05/31 07:21:35;;;;;;;;;;;;;;;;;;5025949;28;20685;-61
2023/05/31 07:24:01;;;;;;;;;;;;;;;;;;5024508;28;20218;-61
2023/05/31 07:26:28;;;;;;;;;;;;;;;;;;5018256;28;20403;-61
2023/05/31 07:28:55;;;;;;;;;;;;;;;;;;5020926;28;20019;-61
2023/05/31 07:31:21;;;;;;;;;;;;;;;;;;5022026;28;20012;-61
2023/05/31 07:33:47;;;;;;;;;;;;;;;;;;5023079;28;19923;-62
2023/05/31 07:36:13;;;;;;;;;;;;;;;;;;5028408;28;19921;-61
2023/05/31 07:38:39;;;;;;;;;;;;;;;;;;5025685;28;19928;-62
2023/05/31 07:41:05;;;;;;;;;;;;;;;;;;5020984;28;19925;-62
2023/05/31 07:43:32;;;;;;;;;;;;;;;;;;5021701;28;20504;-63
2023/05/31 07:45:58;;;;;;;;;;;;;;;;;;5026323;28;19924;-63
2023/05/31 07:48:24;;;;;;;;;;;;;;;;;;5022634;28;19917;-62
2023/05/31 07:50:50;;;;;;;;;;;;;;;;;;5022332;28;19920;-63
2023/05/31 07:53:16;;;;;;;;;;;;;;;;;;5023793;28;20020;-62
2023/05/31 07:55:42;;;;;;;;;;;;;;;;;;5022165;28;20347;-63
2023/05/31 07:58:08;;;;;;;;;;;;;;;;;;5024365;28;19952;-62
2023/05/31 08:00:34;;;;;;;;;;;;;;;;;;5024866;28;20031;-62
2023/05/31 08:03:00;;;;;;;;;;;;;;;;;;5024081;28;20008;-62
2023/05/31 08:05:26;;;;;;;;;;;;;;;;;;5024640;28;20257;-62
2023/05/31 08:07:53;;;;;;;;;;;;;;;;;;5026792;28;20305;-62
2023/05/31 08:10:19;;;;;;;;;;;;;;;;;;5024402;28;19909;-63
2023/05/31 08:12:45;;;;;;;;;;;;;;;;;;5023212;28;20292;-62
2023/05/31 08:15:11;;;;;;;;;;;;;;;;;;5025970;28;19917;-64
2023/05/31 08:17:38;;;;;;;;;;;;;;;;;;5020123;28;19936;-62
2023/05/31 08:20:07;;;;;;;;;;;;;;;;;;5015909;28;20015;-64
2023/05/31 08:22:33;;;;;;;;;;;;;;;;;;5022032;28;20004;-64
2023/05/31 08:24:59;;;;;;;;;;;;;;;;;;5025812;28;19921;-65
2023/05/31 08:27:25;;;;;;;;;;;;;;;;;;5025697;28;19953;-64
2023/05/31 08:29:51;;;;;;;;;;;;;;;;;;5026382;28;20291;-63
2023/05/31 08:32:17;;;;;;;;;;;;;;;;;;5024991;28;19974;-64
2023/05/31 08:34:45;;;;;;;;;;;;;;;;;;5028193;28;19956;-64
2023/05/31 08:37:11;;;;;;;;;;;;;;;;;;5027902;28;19916;-64
2023/05/31 08:39:37;;;;;;;;;;;;;;;;;;5024936;28;20388;-64
2023/05/31 08:42:04;;;;;;;;;;;;;;;;;;5027794;28;20388;-63
2023/05/31 08:44:30;;;;;;;;;;;;;;;;;;5024734;28;19921;-64
2023/05/31 08:46:56;;;;;;;;;;;;;;;;;;5026595;28;19917;-63
2023/05/31 08:49:22;;;;;;;;;;;;;;;;;;5026612;28;20395;-64
2023/05/31 08:51:48;;;;;;;;;;;;;;;;;;5028089;28;19917;-64
2023/05/31 08:54:14;;;;;;;;;;;;;;;;;;5024998;28;19966;-64
2023/05/31 08:56:40;;;;;;;;;;;;;;;;;;5027052;28;19962;-64
2023/05/31 08:59:06;;;;;;;;;;;;;;;;;;5028908;28;19924;-64
2023/05/31 09:01:33;;;;;;;;;;;;;;;;;;5026505;28;19917;-64
2023/05/31 09:03:59;;;;;;;;;;;;;;;;;;5025194;28;19924;-64
2023/05/31 09:06:25;;;;;;;;;;;;;;;;;;5023623;28;19961;-63
2023/05/31 09:08:51;;;;;;;;;;;;;;;;;;5023952;28;19948;-64
2023/05/31 09:11:17;;;;;;;;;;;;;;;;;;5023245;28;20547;-64
2023/05/31 09:13:43;;;;;;;;;;;;;;;;;;5020577;28;20016;-63
2023/05/31 09:16:09;;;;;;;;;;;;;;;;;;5017853;28;19940;-64
2023/05/31 09:18:35;;;;;;;;;;;;;;;;;;5029978;28;20369;-64
2023/05/31 09:21:01;;;;;;;;;;;;;;;;;;5025553;28;20073;-64
2023/05/31 09:23:27;;;;;;;;;;;;;;;;;;5022468;28;20310;-64
2023/05/31 09:25:53;;;;;;;;;;;;;;;;;;5023515;28;20098;-64
2023/05/31 09:28:19;;;;;;;;;;;;;;;;;;5028248;28;19967;-64
2023/05/31 09:30:45;;;;;;;;;;;;;;;;;;5024505;28;19913;-64
2023/05/31 09:33:11;;;;;;;;;;;;;;;;;;5023678;28;19918;-64
2023/05/31 09:35:37;;;;;;;;;;;;;;;;;;5028043;28;20021;-64
2023/05/31 09:38:03;;;;;;;;;;;;;;;;;;5026719;28;19952;-64
2023/05/31 09:40:29;;;;;;;;;;;;;;;;;;5027159;28;20442;-64
2023/05/31 09:42:55;;;;;;;;;;;;;;;;;;5029164;28;20362;-64
2023/05/31 09:45:21;;;;;;;;;;;;;;;;;;5027676;28;20411;-64
2023/05/31 09:47:47;;;;;;;;;;;;;;;;;;5026253;28;20008;-65
2023/05/31 09:50:13;;;;;;;;;;;;;;;;;;5025553;28;19959;-63
2023/05/31 09:52:39;;;;;;;;;;;;;;;;;;5027677;28;19913;-64
2023/05/31 09:55:05;;;;;;;;;;;;;;;;;;5029566;28;19921;-64
2023/05/31 09:57:31;;;;;;;;;;;;;;;;;;5028878;28;19945;-64
2023/05/31 09:59:58;;;;;;;;;;;;;;;;;;5029492;28;20376;-64
2023/05/31 10:02:27;;;;;;;;;;;;;;;;;;5026978;28;19924;-62
2023/05/31 10:04:53;;;;;;;;;;;;;;;;;;5025631;28;20391;-64
2023/05/31 10:07:19;;;;;;;;;;;;;;;;;;5026568;28;19948;-64
2023/05/31 10:09:48;;;;;;;;;;;;;;;;;;5026534;28;19963;-65
2023/05/31 10:12:17;;;;;;;;;;;;;;;;;;5029084;28;19961;-64
2023/05/31 10:14:46;;;;;;;;;;;;;;;;;;5024432;28;19921;-65
2023/05/31 10:17:13;;;;;;;;;;;;;;;;;;5025592;28;19948;-65
2023/05/31 10:19:39;;;;;;;;;;;;;;;;;;5028285;28;20016;-61
2023/05/31 10:22:05;;;;;;;;;;;;;;;;;;5026824;28;20019;-62
2023/05/31 10:24:33;;;;;;;;;;;;;;;;;;5024653;28;20392;-62
2023/05/31 10:26:59;;;;;;;;;;;;;;;;;;5020682;28;19925;-63
2023/05/31 10:29:25;;;;;;;;;;;;;;;;;;5019294;28;19944;-62
2023/05/31 10:31:51;;;;;;;;;;;;;;;;;;5027543;28;19913;-62
2023/05/31 10:34:17;;;;;;;;;;;;;;;;;;5028334;28;19913;-62
2023/05/31 10:36:43;;;;;;;;;;;;;;;;;;5027531;28;19924;-63
2023/05/31 10:39:09;;;;;;;;;;;;;;;;;;5026718;28;19929;-61
2023/05/31 10:41:35;;;;;;;;;;;;;;;;;;5026097;28;20308;-60
2023/05/31 10:44:02;;;;;;;;;;;;;;;;;;5024614;28;19911;-61
2023/05/31 10:46:28;;;;;;;;;;;;;;;;;;5022347;28;20235;-61
2023/05/31 10:48:57;;;;;;;;;;;;;;;;;;5023787;28;20060;-61
2023/05/31 10:51:23;;;;;;;;;;;;;;;;;;5022184;28;20444;-61
2023/05/31 10:53:50;;;;;;;;;;;;;;;;;;5022392;28;20313;-60
2023/05/31 10:56:21;;;;;;;;;;;;;;;;;;5022633;28;20075;-60
2023/05/31 10:58:47;;;;;;;;;;;;;;;;;;5025301;28;19909;-60
2023/05/31 11:01:13;;;;;;;;;;;;;;;;;;5021919;28;20466;-60
2023/05/31 11:03:39;;;;;;;;;;;;;;;;;;5026079;28;19917;-61
2023/05/31 11:06:05;;;;;;;;;;;;;;;;;;5028197;28;19913;-61
2023/05/31 11:08:31;;;;;;;;;;;;;;;;;;5026874;28;19947;-61
2023/05/31 11:10:58;;;;;;;;;;;;;;;;;;5027014;28;20376;-60
2023/05/31 11:13:24;;;;;;;;;;;;;;;;;;5027289;28;19949;-61
2023/05/31 11:15:53;;;;;;;;;;;;;;;;;;5029371;28;19923;-60
2023/05/31 11:18:22;;;;;;;;;;;;;;;;;;5032713;28;19992;-60
2023/05/31 11:20:48;;;;;;;;;;;;;;;;;;5027974;28;19983;-61
2023/05/31 11:23:17;;;;;;;;;;;;;;;;;;5028239;28;20273;-62
2023/05/31 11:25:43;;;;;;;;;;;;;;;;;;5026767;28;19959;-62
2023/05/31 11:28:10;;;;;;;;;;;;;;;;;;5027857;28;20047;-61
2023/05/31 11:30:35;;;;;;;;;;;;;;;;;;5027889;28;20421;-61
2023/05/31 11:33:02;;;;;;;;;;;;;;;;;;5029222;28;19960;-62
2023/05/31 11:35:28;;;;;;;;;;;;;;;;;;5028747;28;19920;-62
2023/05/31 11:37:54;;;;;;;;;;;;;;;;;;5028191;28;20316;-62
2023/05/31 11:40:20;;;;;;;;;;;;;;;;;;5026788;28;20020;-60
2023/05/31 11:42:46;;;;;;;;;;;;;;;;;;5026896;28;20298;-61
2023/05/31 11:45:13;;;;;;;;;;;;;;;;;;5027995;28;19913;-61
2023/05/31 11:47:39;;;;;;;;;;;;;;;;;;5019932;28;19921;-57
2023/05/31 11:50:05;;;;;;;;;;;;;;;;;;5027827;28;20210;-60
2023/05/31 11:52:31;;;;;;;;;;;;;;;;;;5025905;28;20360;-60
2023/05/31 11:54:57;;;;;;;;;;;;;;;;;;5026919;28;19924;-59
2023/05/31 11:57:26;;;;;;;;;;;;;;;;;;5031545;28;19917;-61
2023/05/31 11:59:52;;;;;;;;;;;;;;;;;;5028576;28;19921;-61
2023/05/31 12:02:18;;;;;;;;;;;;;;;;;;5028572;28;19917;-61
2023/05/31 12:04:44;;;;;;;;;;;;;;;;;;5028726;28;19917;-62
2023/05/31 12:07:10;;;;;;;;;;;;;;;;;;5028215;28;19971;-62
2023/05/31 12:09:36;;;;;;;;;;;;;;;;;;5022799;28;20214;-61
2023/05/31 12:12:05;;;;;;;;;;;;;;;;;;5026552;28;19987;-62
2023/05/31 12:14:31;;;;;;;;;;;;;;;;;;5027195;28;20062;-63
2023/05/31 12:16:58;;;;;;;;;;;;;;;;;;5027946;28;19916;-64
2023/05/31 12:19:24;;;;;;;;;;;;;;;;;;5028932;28;20160;-63
2023/05/31 12:21:50;;;;;;;;;;;;;;;;;;5029042;28;19917;-63
2023/05/31 12:24:16;;;;;;;;;;;;;;;;;;5028118;28;19975;-63
2023/05/31 12:26:42;;;;;;;;;;;;;;;;;;5026665;28;19917;-62
2023/05/31 12:29:09;;;;;;;;;;;;;;;;;;5029242;28;19917;-63
2023/05/31 12:31:35;;;;;;;;;;;;;;;;;;5027758;28;19961;-63
2023/05/31 12:34:01;;;;;;;;;;;;;;;;;;5027922;28;19929;-63
2023/05/31 12:36:27;;;;;;;;;;;;;;;;;;5043860;28;20512;-59
2023/05/31 12:38:54;;;;;;;;;;;;;;;;;;5024593;28;19991;-61
2023/05/31 12:41:21;;;;;;;;;;;;;;;;;;5025370;28;19925;-61
2023/05/31 12:43:47;;;;;;;;;;;;;;;;;;5025117;28;20020;-62
2023/05/31 12:46:13;;;;;;;;;;;;;;;;;;5025319;28;20322;-62
2023/05/31 12:48:42;;;;;;;;;;;;;;;;;;5027141;28;20448;-62
2023/05/31 12:51:08;;;;;;;;;;;;;;;;;;5027657;28;20366;-63
2023/05/31 12:53:34;;;;;;;;;;;;;;;;;;5025901;28;20381;-63
2023/05/31 12:56:00;;;;;;;;;;;;;;;;;;5025222;28;19921;-65
2023/05/31 12:58:26;;;;;;;;;;;;;;;;;;5022054;28;20369;-61
2023/05/31 13:00:52;;;;;;;;;;;;;;;;;;5023760;28;20269;-62
2023/05/31 13:03:18;;;;;;;;;;;;;;;;;;5023801;28;20063;-63
2023/05/31 13:05:44;;;;;;;;;;;;;;;;;;5021508;28;19913;-64
2023/05/31 13:08:10;;;;;;;;;;;;;;;;;;5029068;28;19921;-64
2023/05/31 13:10:36;;;;;;;;;;;;;;;;;;5026009;28;19975;-63
2023/05/31 13:13:03;;;;;;;;;;;;;;;;;;5017518;28;19917;-60
2023/05/31 13:15:29;;;;;;;;;;;;;;;;;;5022752;28;20337;-60
2023/05/31 13:17:55;;;;;;;;;;;;;;;;;;5026168;28;19919;-59
2023/05/31 13:20:21;;;;;;;;;;;;;;;;;;5028291;28;20412;-64
2023/05/31 13:22:47;;;;;;;;;;;;;;;;;;5025415;28;19917;-60
2023/05/31 13:25:13;;;;;;;;;;;;;;;;;;5027149;28;19941;-64
2023/05/31 13:27:39;;;;;;;;;;;;;;;;;;5024316;28;19963;-64
2023/05/31 13:30:06;;;;;;;;;;;;;;;;;;5027449;28;21651;-63
2023/05/31 13:32:32;;;;;;;;;;;;;;;;;;5025586;28;20387;-64
2023/05/31 13:34:58;;;;;;;;;;;;;;;;;;5027156;28;19956;-61
2023/05/31 13:37:24;;;;;;;;;;;;;;;;;;5028272;28;20435;-61
2023/05/31 13:39:51;;;;;;;;;;;;;;;;;;5019278;28;19926;-60
2023/05/31 13:42:17;;;;;;;;;;;;;;;;;;5029812;28;19978;-59
2023/05/31 13:44:43;;;;;;;;;;;;;;;;;;5028455;28;20444;-59
2023/05/31 13:47:09;;;;;;;;;;;;;;;;;;5030040;28;20281;-59
2023/05/31 13:49:35;;;;;;;;;;;;;;;;;;5029543;28;19940;-61
2023/05/31 13:52:01;;;;;;;;;;;;;;;;;;5025333;28;20019;-63
2023/05/31 13:54:27;;;;;;;;;;;;;;;;;;5027244;28;20082;-61
2023/05/31 13:56:58;;;;;;;;;;;;;;;;;;5026258;28;19921;-60
2023/05/31 13:59:24;;;;;;;;;;;;;;;;;;5028266;28;19924;-60
2023/05/31 14:01:50;;;;;;;;;;;;;;;;;;5030195;28;20125;-60
2023/05/31 14:04:17;;;;;;;;;;;;;;;;;;5025784;28;19917;-61
2023/05/31 14:06:44;;;;;;;;;;;;;;;;;;5025022;28;20323;-60
2023/05/31 14:09:10;;;;;;;;;;;;;;;;;;5023852;28;20368;-60
2023/05/31 14:11:36;;;;;;;;;;;;;;;;;;5025279;28;19981;-61
2023/05/31 14:14:03;;;;;;;;;;;;;;;;;;5026746;28;19967;-61
2023/05/31 14:16:29;;;;;;;;;;;;;;;;;;5026971;28;19929;-61
2023/05/31 14:18:55;;;;;;;;;;;;;;;;;;5024530;28;19963;-60
2023/05/31 14:21:21;;;;;;;;;;;;;;;;;;5022358;28;19995;-60
2023/05/31 14:23:47;;;;;;;;;;;;;;;;;;5022707;28;19913;-61
2023/05/31 14:26:13;;;;;;;;;;;;;;;;;;5018488;28;20349;-62
2023/05/31 14:28:39;;;;;;;;;;;;;;;;;;5026696;28;20290;-62
2023/05/31 14:31:05;;;;;;;;;;;;;;;;;;5024168;28;19917;-61
2023/05/31 14:33:31;;;;;;;;;;;;;;;;;;5036748;28;19979;-61
2023/05/31 14:35:57;;;;;;;;;;;;;;;;;;5022317;28;19967;-61
2023/05/31 14:38:23;;;;;;;;;;;;;;;;;;5020665;28;20008;-61
2023/05/31 14:40:51;;;;;;;;;;;;;;;;;;5022329;28;20701;-61
2023/05/31 14:43:17;;;;;;;;;;;;;;;;;;5026175;28;19943;-61
2023/05/31 14:45:43;;;;;;;;;;;;;;;;;;5024208;28;19952;-61
2023/05/31 14:48:09;;;;;;;;;;;;;;;;;;5017067;28;20055;-63
2023/05/31 14:50:35;;;;;;;;;;;;;;;;;;5034917;28;19940;-63
2023/05/31 14:53:00;;;;;;;;;;;;;;;;;;5020381;28;20334;-63
2023/05/31 14:55:27;;;;;;;;;;;;;;;;;;5021816;28;19984;-61
2023/05/31 14:57:53;;;;;;;;;;;;;;;;;;5021495;28;19924;-61
2023/05/31 15:00:19;;;;;;;;;;;;;;;;;;5020269;28;19924;-61
2023/05/31 15:02:45;;;;;;;;;;;;;;;;;;5021158;28;19920;-60
2023/05/31 15:05:11;;;;;;;;;;;;;;;;;;5021224;28;19921;-61
2023/05/31 15:07:38;;;;;;;;;;;;;;;;;;5025335;28;19917;-61
2023/05/31 15:10:04;;;;;;;;;;;;;;;;;;5022888;28;19948;-60
2023/05/31 15:12:30;;;;;;;;;;;;;;;;;;5023873;28;20384;-60
2023/05/31 15:14:56;;;;;;;;;;;;;;;;;;5023898;28;20012;-59
2023/05/31 15:17:22;;;;;;;;;;;;;;;;;;5021281;28;19917;-60
2023/05/31 15:19:48;;;;;;;;;;;;;;;;;;5022262;28;19943;-59
2023/05/31 15:22:14;;;;;;;;;;;;;;;;;;5025452;28;19920;-59
2023/05/31 15:24:42;;;;;;;;;;;;;;;;;;5022457;28;19967;-59
2023/05/31 15:27:11;;;;;;;;;;;;;;;;;;5022684;28;19917;-60
2023/05/31 15:29:39;;;;;;;;;;;;;;;;;;5023667;28;19917;-60
2023/05/31 15:32:06;;;;;;;;;;;;;;;;;;5026376;28;19917;-60
2023/05/31 15:34:32;;;;;;;;;;;;;;;;;;5024586;28;20311;-60
2023/05/31 15:36:58;;;;;;;;;;;;;;;;;;5019960;28;20348;-60
2023/05/31 15:39:24;;;;;;;;;;;;;;;;;;5021314;28;20004;-60
2023/05/31 15:41:51;;;;;;;;;;;;;;;;;;5024771;28;20267;-60
2023/05/31 15:44:17;;;;;;;;;;;;;;;;;;5022916;28;19984;-60
2023/05/31 15:46:44;;;;;;;;;;;;;;;;;;5025294;28;19948;-60
2023/05/31 15:49:10;;;;;;;;;;;;;;;;;;5018240;28;19968;-60
2023/05/31 15:51:36;;;;;;;;;;;;;;;;;;5025566;28;19952;-62
2023/05/31 15:54:02;;;;;;;;;;;;;;;;;;5022919;28;19940;-61
2023/05/31 15:56:31;;;;;;;;;;;;;;;;;;5022591;28;19913;-60
2023/05/31 15:58:58;;;;;;;;;;;;;;;;;;5023550;28;20286;-60
2023/05/31 16:01:24;;;;;;;;;;;;;;;;;;5029795;28;19921;-62
2023/05/31 16:03:51;;;;;;;;;;;;;;;;;;5023255;28;19928;-60
2023/05/31 16:06:18;;;;;;;;;;;;;;;;;;5021830;28;19923;-61
2023/05/31 16:08:44;;;;;;;;;;;;;;;;;;5024163;28;19979;-60
2023/05/31 16:11:10;;;;;;;;;;;;;;;;;;5024948;28;19916;-61
2023/05/31 16:13:36;;;;;;;;;;;;;;;;;;5024236;28;19945;-63
2023/05/31 16:16:02;;;;;;;;;;;;;;;;;;5026372;28;19975;-64
2023/05/31 16:18:28;;;;;;;;;;;;;;;;;;5024389;28;20379;-62
2023/05/31 16:20:54;;;;;;;;;;;;;;;;;;5024663;28;20245;-63
2023/05/31 16:23:20;;;;;;;;;;;;;;;;;;5026120;28;19963;-62
2023/05/31 16:25:46;;;;;;;;;;;;;;;;;;5018692;28;20057;-61
2023/05/31 16:28:13;;;;;;;;;;;;;;;;;;5025544;28;19970;-61
2023/05/31 16:30:39;;;;;;;;;;;;;;;;;;5039974;28;20417;-62
2023/05/31 16:33:05;;;;;;;;;;;;;;;;;;5022085;28;20000;-61
2023/05/31 16:35:31;;;;;;;;;;;;;;;;;;5023685;28;20333;-61
2023/05/31 16:37:57;;;;;;;;;;;;;;;;;;5026245;28;19980;-61